Pagina principale
METAR-TAF:

METAR-TAF

Aeroporti :

Aeroporto Internazionale di Tuzla

Tuzla, Bosnia-Erzegovina

latitudine: 44-33N, longitudine: 018-42E, altezza: 306 m

Osservazione

Il bollettino è stato emesso 36 minuti fa, alle 20:00 UTC
Vento 1 kt da direzioni variabili
Temperature 14°C
Umidità 94%
Pressione 1017 hPa
Visibilità 10 km o più
nessuna nube inferiore a 1500 m e nessun cumulonembo

METAR: LQTZ 162000Z VRB01KT CAVOK 14/13 Q1017

Ora: 22:36 (20:36 UTC)

Previsione

Il bollettino è stato emesso 3 ore e 36 minuti fa, alle 17:00 UTC
Previsione valida dal 16 alle 18 UTC al 17 alle 18 UTC
Vento 2 kt da direzioni variabili
Visibilità 10 km o più
nessuna nube inferiore a 1500 m e nessun cumulonembo
Probabilità 40% :
Temporaneamente
dal 17 alle 03 UTC al 17 alle 06 UTC
Visibilità: 2000 m
foschia

TAF: LQTZ 161700Z 1618/1718 VRB02KT CAVOK TX28/1713Z TN11/1704Z PROB40 TEMPO 1703/1706 2000 BR

Osservazioni e previsioni meteorologiche di più di 4000 aeroporti (messaggi METAR e TAF).

Le stazioni disponibili sono rappresentate dai dischi gialli e rossi sulla carta.

Puntare il mouse per vedere il nome della stazione.

Clicca sopra per visualizzare le osservazioni e previsioni meteorologiche.

Per cambiare la mappa : fare clic sui pulsanti verdi con una croce nera per ingrandire, il pulsante verde con un trattino per diminuire, o sulla freccia verde per le mappe adiacenti.


METAR-TAF: